sensor_id;sensor_type;location;lat;lon;timestamp;P1;durP1;ratioP1;P2;durP2;ratioP2
50056;SDS011;36875;49.468;11.200;2022-09-09T00:01:23;1.35;;;0.57;;
50056;SDS011;36875;49.468;11.200;2022-09-09T00:04:00;1.92;;;0.52;;
50056;SDS011;36875;49.468;11.200;2022-09-09T00:06:30;2.13;;;0.85;;
50056;SDS011;36875;49.468;11.200;2022-09-09T00:09:01;1.70;;;0.60;;
50056;SDS011;36875;49.468;11.200;2022-09-09T00:11:36;1.00;;;0.60;;
50056;SDS011;36875;49.468;11.200;2022-09-09T00:14:09;1.55;;;0.55;;
50056;SDS011;36875;49.468;11.200;2022-09-09T00:16:40;1.20;;;0.57;;
50056;SDS011;36875;49.468;11.200;2022-09-09T00:19:13;2.42;;;0.85;;
50056;SDS011;36875;49.468;11.200;2022-09-09T00:21:47;1.67;;;0.70;;
50056;SDS011;36875;49.468;11.200;2022-09-09T00:24:24;1.10;;;0.60;;
50056;SDS011;36875;49.468;11.200;2022-09-09T00:26:53;0.70;;;0.38;;
50056;SDS011;36875;49.468;11.200;2022-09-09T00:29:28;1.35;;;0.73;;
50056;SDS011;36875;49.468;11.200;2022-09-09T00:32:04;1.42;;;0.85;;
50056;SDS011;36875;49.468;11.200;2022-09-09T00:34:36;1.77;;;0.60;;
50056;SDS011;36875;49.468;11.200;2022-09-09T00:37:12;1.02;;;0.60;;
50056;SDS011;36875;49.468;11.200;2022-09-09T00:39:38;1.48;;;0.60;;
50056;SDS011;36875;49.468;11.200;2022-09-09T00:42:11;1.30;;;0.60;;
50056;SDS011;36875;49.468;11.200;2022-09-09T00:44:44;1.85;;;0.73;;
50056;SDS011;36875;49.468;11.200;2022-09-09T00:47:24;2.10;;;0.70;;
50056;SDS011;36875;49.468;11.200;2022-09-09T00:50:08;1.80;;;0.50;;
50056;SDS011;36875;49.468;11.200;2022-09-09T00:52:43;0.63;;;0.40;;
50056;SDS011;36875;49.468;11.200;2022-09-09T00:55:18;1.35;;;0.50;;
50056;SDS011;36875;49.468;11.200;2022-09-09T00:57:51;1.48;;;0.60;;
50056;SDS011;36875;49.468;11.200;2022-09-09T01:00:23;1.80;;;0.75;;
50056;SDS011;36875;49.468;11.200;2022-09-09T01:03:04;1.02;;;0.40;;
50056;SDS011;36875;49.468;11.200;2022-09-09T01:05:45;2.22;;;0.80;;
50056;SDS011;36875;49.468;11.200;2022-09-09T01:08:19;0.43;;;0.35;;
50056;SDS011;36875;49.468;11.200;2022-09-09T01:10:58;0.73;;;0.60;;
50056;SDS011;36875;49.468;11.200;2022-09-09T01:13:25;1.60;;;0.70;;
50056;SDS011;36875;49.468;11.200;2022-09-09T01:15:56;0.70;;;0.50;;
50056;SDS011;36875;49.468;11.200;2022-09-09T01:18:23;1.35;;;0.60;;
50056;SDS011;36875;49.468;11.200;2022-09-09T01:20:55;1.30;;;0.52;;
50056;SDS011;36875;49.468;11.200;2022-09-09T01:23:33;1.38;;;0.57;;
50056;SDS011;36875;49.468;11.200;2022-09-09T01:26:16;1.15;;;0.50;;
50056;SDS011;36875;49.468;11.200;2022-09-09T01:28:45;4.00;;;0.80;;
50056;SDS011;36875;49.468;11.200;2022-09-09T01:31:14;0.50;;;0.40;;
50056;SDS011;36875;49.468;11.200;2022-09-09T01:33:42;1.13;;;0.60;;
50056;SDS011;36875;49.468;11.200;2022-09-09T01:36:09;2.70;;;0.65;;
50056;SDS011;36875;49.468;11.200;2022-09-09T01:38:37;0.95;;;0.60;;
50056;SDS011;36875;49.468;11.200;2022-09-09T01:41:03;2.17;;;0.55;;
50056;SDS011;36875;49.468;11.200;2022-09-09T01:43:31;0.90;;;0.52;;
50056;SDS011;36875;49.468;11.200;2022-09-09T01:45:58;1.77;;;0.70;;
50056;SDS011;36875;49.468;11.200;2022-09-09T01:48:26;1.27;;;0.60;;
50056;SDS011;36875;49.468;11.200;2022-09-09T01:50:52;1.35;;;0.57;;
50056;SDS011;36875;49.468;11.200;2022-09-09T01:53:18;1.85;;;0.65;;
50056;SDS011;36875;49.468;11.200;2022-09-09T01:55:46;1.35;;;0.55;;
50056;SDS011;36875;49.468;11.200;2022-09-09T01:58:20;0.85;;;0.40;;
50056;SDS011;36875;49.468;11.200;2022-09-09T02:00:59;1.88;;;0.63;;
50056;SDS011;36875;49.468;11.200;2022-09-09T02:03:31;1.33;;;0.63;;
50056;SDS011;36875;49.468;11.200;2022-09-09T02:06:00;0.50;;;0.50;;
50056;SDS011;36875;49.468;11.200;2022-09-09T02:08:37;2.88;;;1.20;;
50056;SDS011;36875;49.468;11.200;2022-09-09T02:11:09;0.90;;;0.60;;
50056;SDS011;36875;49.468;11.200;2022-09-09T02:13:38;1.15;;;0.52;;
50056;SDS011;36875;49.468;11.200;2022-09-09T02:16:06;1.73;;;0.60;;
50056;SDS011;36875;49.468;11.200;2022-09-09T02:18:35;1.90;;;0.80;;
50056;SDS011;36875;49.468;11.200;2022-09-09T02:21:05;0.88;;;0.57;;
50056;SDS011;36875;49.468;11.200;2022-09-09T02:23:32;0.55;;;0.52;;
50056;SDS011;36875;49.468;11.200;2022-09-09T02:26:00;0.88;;;0.50;;
50056;SDS011;36875;49.468;11.200;2022-09-09T02:28:27;1.70;;;0.80;;
50056;SDS011;36875;49.468;11.200;2022-09-09T02:30:56;1.80;;;0.68;;
50056;SDS011;36875;49.468;11.200;2022-09-09T02:33:26;1.13;;;0.50;;
50056;SDS011;36875;49.468;11.200;2022-09-09T02:35:55;0.73;;;0.47;;
50056;SDS011;36875;49.468;11.200;2022-09-09T02:38:27;1.00;;;0.40;;
50056;SDS011;36875;49.468;11.200;2022-09-09T02:40:55;0.65;;;0.47;;
50056;SDS011;36875;49.468;11.200;2022-09-09T02:43:21;1.17;;;0.63;;
50056;SDS011;36875;49.468;11.200;2022-09-09T02:45:47;0.93;;;0.50;;
50056;SDS011;36875;49.468;11.200;2022-09-09T02:48:25;0.70;;;0.50;;
50056;SDS011;36875;49.468;11.200;2022-09-09T02:51:01;0.85;;;0.57;;
50056;SDS011;36875;49.468;11.200;2022-09-09T02:53:36;0.98;;;0.52;;
50056;SDS011;36875;49.468;11.200;2022-09-09T02:56:11;0.93;;;0.52;;
50056;SDS011;36875;49.468;11.200;2022-09-09T02:58:40;0.77;;;0.50;;
50056;SDS011;36875;49.468;11.200;2022-09-09T03:01:07;1.25;;;0.47;;
50056;SDS011;36875;49.468;11.200;2022-09-09T03:03:35;1.60;;;0.73;;
50056;SDS011;36875;49.468;11.200;2022-09-09T03:06:01;2.00;;;0.80;;
50056;SDS011;36875;49.468;11.200;2022-09-09T03:08:26;0.50;;;0.40;;
50056;SDS011;36875;49.468;11.200;2022-09-09T03:10:53;1.52;;;0.77;;
50056;SDS011;36875;49.468;11.200;2022-09-09T03:13:19;1.58;;;0.50;;
50056;SDS011;36875;49.468;11.200;2022-09-09T03:15:45;0.93;;;0.45;;
50056;SDS011;36875;49.468;11.200;2022-09-09T03:18:10;1.33;;;0.52;;
50056;SDS011;36875;49.468;11.200;2022-09-09T03:20:37;0.52;;;0.40;;
50056;SDS011;36875;49.468;11.200;2022-09-09T03:23:03;1.13;;;0.52;;
50056;SDS011;36875;49.468;11.200;2022-09-09T03:25:28;1.80;;;0.52;;
50056;SDS011;36875;49.468;11.200;2022-09-09T03:27:55;1.40;;;0.68;;
50056;SDS011;36875;49.468;11.200;2022-09-09T03:30:21;0.70;;;0.50;;
50056;SDS011;36875;49.468;11.200;2022-09-09T03:32:46;1.48;;;0.60;;
50056;SDS011;36875;49.468;11.200;2022-09-09T03:35:13;1.27;;;0.65;;
50056;SDS011;36875;49.468;11.200;2022-09-09T03:37:40;0.75;;;0.50;;
50056;SDS011;36875;49.468;11.200;2022-09-09T03:40:07;0.77;;;0.55;;
50056;SDS011;36875;49.468;11.200;2022-09-09T03:42:34;1.63;;;0.52;;
50056;SDS011;36875;49.468;11.200;2022-09-09T03:45:02;1.17;;;0.70;;
50056;SDS011;36875;49.468;11.200;2022-09-09T03:47:27;1.10;;;0.47;;
50056;SDS011;36875;49.468;11.200;2022-09-09T03:49:54;0.93;;;0.68;;
50056;SDS011;36875;49.468;11.200;2022-09-09T03:52:19;1.08;;;0.70;;
50056;SDS011;36875;49.468;11.200;2022-09-09T03:54:48;1.00;;;0.60;;
50056;SDS011;36875;49.468;11.200;2022-09-09T03:57:13;1.15;;;0.60;;
50056;SDS011;36875;49.468;11.200;2022-09-09T03:59:41;1.75;;;0.60;;
50056;SDS011;36875;49.468;11.200;2022-09-09T04:02:07;1.58;;;0.50;;
50056;SDS011;36875;49.468;11.200;2022-09-09T04:04:32;1.00;;;0.50;;
50056;SDS011;36875;49.468;11.200;2022-09-09T04:06:58;1.00;;;0.40;;
50056;SDS011;36875;49.468;11.200;2022-09-09T04:09:23;1.13;;;0.55;;
50056;SDS011;36875;49.468;11.200;2022-09-09T04:11:50;1.48;;;0.73;;
50056;SDS011;36875;49.468;11.200;2022-09-09T04:14:16;1.10;;;0.60;;
50056;SDS011;36875;49.468;11.200;2022-09-09T04:16:42;0.70;;;0.43;;
50056;SDS011;36875;49.468;11.200;2022-09-09T04:19:09;1.10;;;0.55;;
50056;SDS011;36875;49.468;11.200;2022-09-09T04:21:37;0.82;;;0.50;;
50056;SDS011;36875;49.468;11.200;2022-09-09T04:24:04;0.93;;;0.47;;
50056;SDS011;36875;49.468;11.200;2022-09-09T04:26:30;0.70;;;0.52;;
50056;SDS011;36875;49.468;11.200;2022-09-09T04:28:57;1.35;;;0.60;;
50056;SDS011;36875;49.468;11.200;2022-09-09T04:31:22;0.90;;;0.73;;
50056;SDS011;36875;49.468;11.200;2022-09-09T04:33:48;0.77;;;0.45;;
50056;SDS011;36875;49.468;11.200;2022-09-09T04:36:14;1.23;;;0.52;;
50056;SDS011;36875;49.468;11.200;2022-09-09T04:38:40;0.60;;;0.40;;
50056;SDS011;36875;49.468;11.200;2022-09-09T04:41:06;0.50;;;0.40;;
50056;SDS011;36875;49.468;11.200;2022-09-09T04:43:32;0.55;;;0.50;;
50056;SDS011;36875;49.468;11.200;2022-09-09T04:45:59;0.90;;;0.50;;
50056;SDS011;36875;49.468;11.200;2022-09-09T04:48:25;1.15;;;0.60;;
50056;SDS011;36875;49.468;11.200;2022-09-09T04:50:55;0.43;;;0.43;;
50056;SDS011;36875;49.468;11.200;2022-09-09T04:53:21;0.57;;;0.47;;
50056;SDS011;36875;49.468;11.200;2022-09-09T04:55:47;0.93;;;0.50;;
50056;SDS011;36875;49.468;11.200;2022-09-09T04:58:14;1.30;;;0.60;;
50056;SDS011;36875;49.468;11.200;2022-09-09T05:00:40;1.02;;;0.50;;
50056;SDS011;36875;49.468;11.200;2022-09-09T05:03:07;0.70;;;0.50;;
50056;SDS011;36875;49.468;11.200;2022-09-09T05:05:34;1.23;;;0.50;;
50056;SDS011;36875;49.468;11.200;2022-09-09T05:08:00;0.80;;;0.68;;
50056;SDS011;36875;49.468;11.200;2022-09-09T05:10:27;1.17;;;0.77;;
50056;SDS011;36875;49.468;11.200;2022-09-09T05:12:53;0.77;;;0.68;;
50056;SDS011;36875;49.468;11.200;2022-09-09T05:15:19;0.90;;;0.60;;
50056;SDS011;36875;49.468;11.200;2022-09-09T05:17:45;1.27;;;0.50;;
50056;SDS011;36875;49.468;11.200;2022-09-09T05:20:12;2.58;;;1.27;;
50056;SDS011;36875;49.468;11.200;2022-09-09T05:22:38;0.82;;;0.50;;
50056;SDS011;36875;49.468;11.200;2022-09-09T05:25:04;1.30;;;0.60;;
50056;SDS011;36875;49.468;11.200;2022-09-09T05:27:30;1.35;;;0.55;;
50056;SDS011;36875;49.468;11.200;2022-09-09T05:29:58;0.95;;;0.57;;
50056;SDS011;36875;49.468;11.200;2022-09-09T05:32:23;1.77;;;0.60;;
50056;SDS011;36875;49.468;11.200;2022-09-09T05:34:49;1.00;;;0.60;;
50056;SDS011;36875;49.468;11.200;2022-09-09T05:37:16;1.42;;;0.60;;
50056;SDS011;36875;49.468;11.200;2022-09-09T05:39:41;0.63;;;0.50;;
50056;SDS011;36875;49.468;11.200;2022-09-09T05:42:07;1.08;;;0.50;;
50056;SDS011;36875;49.468;11.200;2022-09-09T05:44:33;1.52;;;0.90;;
50056;SDS011;36875;49.468;11.200;2022-09-09T05:46:58;1.15;;;0.57;;
50056;SDS011;36875;49.468;11.200;2022-09-09T05:49:24;0.85;;;0.50;;
50056;SDS011;36875;49.468;11.200;2022-09-09T05:51:50;1.45;;;0.50;;
50056;SDS011;36875;49.468;11.200;2022-09-09T05:54:17;7.30;;;1.10;;
50056;SDS011;36875;49.468;11.200;2022-09-09T05:56:42;4.18;;;1.00;;
50056;SDS011;36875;49.468;11.200;2022-09-09T05:59:08;5.95;;;1.10;;
50056;SDS011;36875;49.468;11.200;2022-09-09T06:01:35;3.08;;;1.08;;
50056;SDS011;36875;49.468;11.200;2022-09-09T06:04:05;3.40;;;0.90;;
50056;SDS011;36875;49.468;11.200;2022-09-09T06:06:32;4.38;;;1.20;;
50056;SDS011;36875;49.468;11.200;2022-09-09T06:09:02;2.47;;;1.15;;
50056;SDS011;36875;49.468;11.200;2022-09-09T06:11:33;7.13;;;1.27;;
50056;SDS011;36875;49.468;11.200;2022-09-09T06:13:59;8.63;;;1.60;;
50056;SDS011;36875;49.468;11.200;2022-09-09T06:16:25;11.05;;;1.60;;
50056;SDS011;36875;49.468;11.200;2022-09-09T06:18:52;9.73;;;1.45;;
50056;SDS011;36875;49.468;11.200;2022-09-09T06:21:20;12.40;;;1.30;;
50056;SDS011;36875;49.468;11.200;2022-09-09T06:23:47;7.32;;;1.40;;
50056;SDS011;36875;49.468;11.200;2022-09-09T06:26:14;3.75;;;1.20;;
50056;SDS011;36875;49.468;11.200;2022-09-09T06:28:44;4.43;;;1.10;;
50056;SDS011;36875;49.468;11.200;2022-09-09T06:31:12;8.50;;;1.58;;
50056;SDS011;36875;49.468;11.200;2022-09-09T06:33:39;6.63;;;1.17;;
50056;SDS011;36875;49.468;11.200;2022-09-09T06:36:06;6.65;;;1.52;;
50056;SDS011;36875;49.468;11.200;2022-09-09T06:38:35;9.50;;;1.65;;
50056;SDS011;36875;49.468;11.200;2022-09-09T06:41:01;6.18;;;1.40;;
50056;SDS011;36875;49.468;11.200;2022-09-09T06:43:27;6.63;;;1.67;;
50056;SDS011;36875;49.468;11.200;2022-09-09T06:45:54;6.18;;;1.50;;
50056;SDS011;36875;49.468;11.200;2022-09-09T06:48:21;4.50;;;1.63;;
50056;SDS011;36875;49.468;11.200;2022-09-09T06:50:47;8.40;;;1.80;;
50056;SDS011;36875;49.468;11.200;2022-09-09T06:53:15;12.77;;;2.08;;
50056;SDS011;36875;49.468;11.200;2022-09-09T06:55:41;7.57;;;1.48;;
50056;SDS011;36875;49.468;11.200;2022-09-09T06:58:09;9.20;;;1.95;;
50056;SDS011;36875;49.468;11.200;2022-09-09T07:00:34;9.10;;;1.60;;
50056;SDS011;36875;49.468;11.200;2022-09-09T07:03:04;9.55;;;1.60;;
50056;SDS011;36875;49.468;11.200;2022-09-09T07:05:31;15.40;;;1.45;;
50056;SDS011;36875;49.468;11.200;2022-09-09T07:07:56;7.82;;;1.70;;
50056;SDS011;36875;49.468;11.200;2022-09-09T07:10:22;9.73;;;1.60;;
50056;SDS011;36875;49.468;11.200;2022-09-09T07:12:50;10.63;;;1.52;;
50056;SDS011;36875;49.468;11.200;2022-09-09T07:15:16;9.13;;;1.40;;
50056;SDS011;36875;49.468;11.200;2022-09-09T07:17:43;5.63;;;1.60;;
50056;SDS011;36875;49.468;11.200;2022-09-09T07:20:10;11.40;;;1.80;;
50056;SDS011;36875;49.468;11.200;2022-09-09T07:22:36;8.48;;;1.67;;
50056;SDS011;36875;49.468;11.200;2022-09-09T07:25:02;6.68;;;1.40;;
50056;SDS011;36875;49.468;11.200;2022-09-09T07:27:28;6.95;;;1.60;;
50056;SDS011;36875;49.468;11.200;2022-09-09T07:29:53;5.40;;;1.60;;
50056;SDS011;36875;49.468;11.200;2022-09-09T07:32:19;3.45;;;1.40;;
50056;SDS011;36875;49.468;11.200;2022-09-09T07:34:45;6.20;;;1.25;;
50056;SDS011;36875;49.468;11.200;2022-09-09T07:37:12;3.78;;;1.50;;
50056;SDS011;36875;49.468;11.200;2022-09-09T07:39:38;7.20;;;1.45;;
50056;SDS011;36875;49.468;11.200;2022-09-09T07:42:04;6.28;;;2.13;;
50056;SDS011;36875;49.468;11.200;2022-09-09T07:44:30;3.00;;;1.10;;
50056;SDS011;36875;49.468;11.200;2022-09-09T07:46:59;5.88;;;1.40;;
50056;SDS011;36875;49.468;11.200;2022-09-09T07:49:25;7.35;;;1.55;;
50056;SDS011;36875;49.468;11.200;2022-09-09T07:51:51;5.47;;;1.23;;
50056;SDS011;36875;49.468;11.200;2022-09-09T07:54:18;6.97;;;1.38;;
50056;SDS011;36875;49.468;11.200;2022-09-09T07:56:48;5.55;;;1.65;;
50056;SDS011;36875;49.468;11.200;2022-09-09T07:59:14;7.75;;;1.50;;
50056;SDS011;36875;49.468;11.200;2022-09-09T08:01:41;4.68;;;1.33;;
50056;SDS011;36875;49.468;11.200;2022-09-09T08:04:09;4.82;;;1.35;;
50056;SDS011;36875;49.468;11.200;2022-09-09T08:06:40;9.18;;;1.55;;
50056;SDS011;36875;49.468;11.200;2022-09-09T08:09:08;8.63;;;1.45;;
50056;SDS011;36875;49.468;11.200;2022-09-09T08:11:35;6.10;;;1.38;;
50056;SDS011;36875;49.468;11.200;2022-09-09T08:14:02;6.85;;;1.60;;
50056;SDS011;36875;49.468;11.200;2022-09-09T08:16:29;5.47;;;1.85;;
50056;SDS011;36875;49.468;11.200;2022-09-09T08:18:56;4.88;;;1.45;;
50056;SDS011;36875;49.468;11.200;2022-09-09T08:21:23;4.57;;;1.40;;
50056;SDS011;36875;49.468;11.200;2022-09-09T08:23:51;3.28;;;1.40;;
50056;SDS011;36875;49.468;11.200;2022-09-09T08:26:18;6.93;;;1.45;;
50056;SDS011;36875;49.468;11.200;2022-09-09T08:28:50;2.78;;;1.20;;
50056;SDS011;36875;49.468;11.200;2022-09-09T08:31:17;7.45;;;1.70;;
50056;SDS011;36875;49.468;11.200;2022-09-09T08:33:44;5.10;;;1.70;;
50056;SDS011;36875;49.468;11.200;2022-09-09T08:36:11;5.45;;;2.03;;
50056;SDS011;36875;49.468;11.200;2022-09-09T08:38:40;4.25;;;1.30;;
50056;SDS011;36875;49.468;11.200;2022-09-09T08:41:14;3.75;;;1.25;;
50056;SDS011;36875;49.468;11.200;2022-09-09T08:44:00;4.72;;;1.23;;
50056;SDS011;36875;49.468;11.200;2022-09-09T08:46:32;4.18;;;1.17;;
50056;SDS011;36875;49.468;11.200;2022-09-09T08:49:05;4.95;;;1.30;;
50056;SDS011;36875;49.468;11.200;2022-09-09T08:51:41;5.63;;;1.08;;
50056;SDS011;36875;49.468;11.200;2022-09-09T08:54:07;3.20;;;1.17;;
50056;SDS011;36875;49.468;11.200;2022-09-09T08:56:35;6.43;;;1.40;;
50056;SDS011;36875;49.468;11.200;2022-09-09T08:59:02;3.50;;;1.20;;
50056;SDS011;36875;49.468;11.200;2022-09-09T09:01:35;2.72;;;1.17;;
50056;SDS011;36875;49.468;11.200;2022-09-09T09:04:12;6.93;;;1.38;;
50056;SDS011;36875;49.468;11.200;2022-09-09T09:06:50;3.80;;;1.20;;
50056;SDS011;36875;49.468;11.200;2022-09-09T09:09:29;6.10;;;1.35;;
50056;SDS011;36875;49.468;11.200;2022-09-09T09:12:10;3.65;;;1.15;;
50056;SDS011;36875;49.468;11.200;2022-09-09T09:14:42;3.80;;;1.10;;
50056;SDS011;36875;49.468;11.200;2022-09-09T09:17:11;6.65;;;1.25;;
50056;SDS011;36875;49.468;11.200;2022-09-09T09:19:40;2.45;;;1.13;;
50056;SDS011;36875;49.468;11.200;2022-09-09T09:22:10;5.78;;;1.20;;
50056;SDS011;36875;49.468;11.200;2022-09-09T09:24:42;4.57;;;1.13;;
50056;SDS011;36875;49.468;11.200;2022-09-09T09:27:15;3.63;;;1.13;;
50056;SDS011;36875;49.468;11.200;2022-09-09T09:29:53;4.00;;;1.15;;
50056;SDS011;36875;49.468;11.200;2022-09-09T09:32:22;2.58;;;0.93;;
50056;SDS011;36875;49.468;11.200;2022-09-09T09:34:50;4.53;;;1.50;;
50056;SDS011;36875;49.468;11.200;2022-09-09T09:37:22;4.10;;;1.58;;
50056;SDS011;36875;49.468;11.200;2022-09-09T09:39:53;6.57;;;1.65;;
50056;SDS011;36875;49.468;11.200;2022-09-09T09:42:18;4.55;;;1.17;;
50056;SDS011;36875;49.468;11.200;2022-09-09T09:44:44;3.00;;;1.00;;
50056;SDS011;36875;49.468;11.200;2022-09-09T09:47:12;1.92;;;1.40;;
50056;SDS011;36875;49.468;11.200;2022-09-09T09:49:40;2.95;;;1.27;;
50056;SDS011;36875;49.468;11.200;2022-09-09T09:52:17;6.03;;;1.13;;
50056;SDS011;36875;49.468;11.200;2022-09-09T09:54:47;5.15;;;1.30;;
50056;SDS011;36875;49.468;11.200;2022-09-09T09:57:13;4.68;;;1.42;;
50056;SDS011;36875;49.468;11.200;2022-09-09T09:59:41;3.80;;;1.40;;
50056;SDS011;36875;49.468;11.200;2022-09-09T10:02:22;4.03;;;1.20;;
50056;SDS011;36875;49.468;11.200;2022-09-09T10:05:00;4.05;;;1.13;;
50056;SDS011;36875;49.468;11.200;2022-09-09T10:07:26;2.97;;;1.23;;
50056;SDS011;36875;49.468;11.200;2022-09-09T10:09:52;4.32;;;1.08;;
50056;SDS011;36875;49.468;11.200;2022-09-09T10:12:23;2.40;;;1.20;;
50056;SDS011;36875;49.468;11.200;2022-09-09T10:14:58;3.88;;;1.00;;
50056;SDS011;36875;49.468;11.200;2022-09-09T10:17:34;3.22;;;1.23;;
50056;SDS011;36875;49.468;11.200;2022-09-09T10:20:12;3.75;;;1.10;;
50056;SDS011;36875;49.468;11.200;2022-09-09T10:22:50;3.63;;;1.60;;
50056;SDS011;36875;49.468;11.200;2022-09-09T10:25:22;24.95;;;12.18;;
50056;SDS011;36875;49.468;11.200;2022-09-09T10:28:02;14.60;;;6.50;;
50056;SDS011;36875;49.468;11.200;2022-09-09T10:30:45;11.27;;;6.15;;
50056;SDS011;36875;49.468;11.200;2022-09-09T10:33:19;18.15;;;11.52;;
50056;SDS011;36875;49.468;11.200;2022-09-09T10:35:55;24.02;;;13.23;;
50056;SDS011;36875;49.468;11.200;2022-09-09T10:38:28;21.25;;;11.95;;
50056;SDS011;36875;49.468;11.200;2022-09-09T10:41:09;22.98;;;12.30;;
50056;SDS011;36875;49.468;11.200;2022-09-09T10:43:55;17.73;;;9.88;;
50056;SDS011;36875;49.468;11.200;2022-09-09T10:46:42;18.08;;;9.23;;
50056;SDS011;36875;49.468;11.200;2022-09-09T10:49:21;13.13;;;7.30;;
50056;SDS011;36875;49.468;11.200;2022-09-09T10:52:00;14.48;;;6.93;;
50056;SDS011;36875;49.468;11.200;2022-09-09T10:54:36;11.45;;;6.22;;
50056;SDS011;36875;49.468;11.200;2022-09-09T10:57:17;14.63;;;5.65;;
50056;SDS011;36875;49.468;11.200;2022-09-09T10:59:52;10.35;;;5.28;;
50056;SDS011;36875;49.468;11.200;2022-09-09T11:02:22;12.60;;;5.05;;
50056;SDS011;36875;49.468;11.200;2022-09-09T11:07:24;7.53;;;3.80;;
50056;SDS011;36875;49.468;11.200;2022-09-09T11:09:55;8.45;;;3.88;;
50056;SDS011;36875;49.468;11.200;2022-09-09T11:12:25;9.15;;;3.40;;
50056;SDS011;36875;49.468;11.200;2022-09-09T11:14:54;7.57;;;3.70;;
50056;SDS011;36875;49.468;11.200;2022-09-09T11:17:26;8.18;;;3.35;;
50056;SDS011;36875;49.468;11.200;2022-09-09T11:20:00;8.13;;;3.38;;
50056;SDS011;36875;49.468;11.200;2022-09-09T11:22:27;6.85;;;3.13;;
50056;SDS011;36875;49.468;11.200;2022-09-09T11:24:59;5.75;;;2.75;;
50056;SDS011;36875;49.468;11.200;2022-09-09T11:27:29;5.97;;;2.85;;
50056;SDS011;36875;49.468;11.200;2022-09-09T11:30:03;6.15;;;3.00;;
50056;SDS011;36875;49.468;11.200;2022-09-09T11:32:46;8.57;;;2.70;;
50056;SDS011;36875;49.468;11.200;2022-09-09T11:35:40;8.10;;;2.40;;
50056;SDS011;36875;49.468;11.200;2022-09-09T11:38:18;6.65;;;2.28;;
50056;SDS011;36875;49.468;11.200;2022-09-09T11:40:46;5.45;;;2.40;;
50056;SDS011;36875;49.468;11.200;2022-09-09T11:43:21;4.85;;;2.20;;
50056;SDS011;36875;49.468;11.200;2022-09-09T11:45:52;6.55;;;2.22;;
50056;SDS011;36875;49.468;11.200;2022-09-09T11:48:23;4.93;;;2.20;;
50056;SDS011;36875;49.468;11.200;2022-09-09T11:50:59;4.70;;;1.95;;
50056;SDS011;36875;49.468;11.200;2022-09-09T11:53:27;5.57;;;1.98;;
50056;SDS011;36875;49.468;11.200;2022-09-09T11:56:03;6.45;;;2.15;;
50056;SDS011;36875;49.468;11.200;2022-09-09T11:58:37;5.00;;;2.25;;
50056;SDS011;36875;49.468;11.200;2022-09-09T12:07:02;4.38;;;1.75;;
50056;SDS011;36875;49.468;11.200;2022-09-09T12:09:39;4.15;;;1.60;;
50056;SDS011;36875;49.468;11.200;2022-09-09T12:12:23;4.95;;;1.83;;
50056;SDS011;36875;49.468;11.200;2022-09-09T12:14:55;4.55;;;2.33;;
50056;SDS011;36875;49.468;11.200;2022-09-09T12:17:26;5.32;;;1.60;;
50056;SDS011;36875;49.468;11.200;2022-09-09T12:20:00;5.47;;;1.77;;
50056;SDS011;36875;49.468;11.200;2022-09-09T12:22:37;4.30;;;1.60;;
50056;SDS011;36875;49.468;11.200;2022-09-09T12:25:12;3.63;;;1.60;;
50056;SDS011;36875;49.468;11.200;2022-09-09T12:27:49;7.13;;;1.48;;
50056;SDS011;36875;49.468;11.200;2022-09-09T12:30:28;5.90;;;1.70;;
50056;SDS011;36875;49.468;11.200;2022-09-09T12:32:59;6.82;;;1.63;;
50056;SDS011;36875;49.468;11.200;2022-09-09T12:35:27;7.35;;;1.40;;
50056;SDS011;36875;49.468;11.200;2022-09-09T12:37:57;8.05;;;1.90;;
50056;SDS011;36875;49.468;11.200;2022-09-09T12:40:25;6.13;;;1.70;;
50056;SDS011;36875;49.468;11.200;2022-09-09T12:42:52;6.55;;;2.10;;
50056;SDS011;36875;49.468;11.200;2022-09-09T12:45:21;7.80;;;1.85;;
50056;SDS011;36875;49.468;11.200;2022-09-09T12:47:50;4.90;;;1.63;;
50056;SDS011;36875;49.468;11.200;2022-09-09T12:50:20;3.85;;;1.48;;
50056;SDS011;36875;49.468;11.200;2022-09-09T12:52:50;5.63;;;1.80;;
50056;SDS011;36875;49.468;11.200;2022-09-09T12:55:21;5.60;;;1.90;;
50056;SDS011;36875;49.468;11.200;2022-09-09T13:00:17;7.93;;;1.60;;
50056;SDS011;36875;49.468;11.200;2022-09-09T13:02:46;4.72;;;1.83;;
50056;SDS011;36875;49.468;11.200;2022-09-09T13:05:16;5.82;;;1.58;;
50056;SDS011;36875;49.468;11.200;2022-09-09T13:07:43;3.58;;;1.33;;
50056;SDS011;36875;49.468;11.200;2022-09-09T13:10:10;4.20;;;1.85;;
50056;SDS011;36875;49.468;11.200;2022-09-09T13:12:39;3.97;;;1.40;;
50056;SDS011;36875;49.468;11.200;2022-09-09T13:15:10;4.97;;;1.45;;
50056;SDS011;36875;49.468;11.200;2022-09-09T13:17:42;3.95;;;1.45;;
50056;SDS011;36875;49.468;11.200;2022-09-09T13:20:14;3.42;;;1.10;;
50056;SDS011;36875;49.468;11.200;2022-09-09T13:22:42;3.45;;;1.20;;
50056;SDS011;36875;49.468;11.200;2022-09-09T13:25:17;5.28;;;1.42;;
50056;SDS011;36875;49.468;11.200;2022-09-09T13:27:52;6.20;;;1.38;;
50056;SDS011;36875;49.468;11.200;2022-09-09T13:30:21;4.53;;;1.20;;
50056;SDS011;36875;49.468;11.200;2022-09-09T13:32:59;5.18;;;1.23;;
50056;SDS011;36875;49.468;11.200;2022-09-09T13:35:26;3.22;;;1.20;;
50056;SDS011;36875;49.468;11.200;2022-09-09T13:37:52;9.68;;;1.20;;
50056;SDS011;36875;49.468;11.200;2022-09-09T13:40:19;6.13;;;1.10;;
50056;SDS011;36875;49.468;11.200;2022-09-09T13:42:46;5.75;;;1.23;;
50056;SDS011;36875;49.468;11.200;2022-09-09T13:45:16;3.10;;;1.00;;
50056;SDS011;36875;49.468;11.200;2022-09-09T13:47:45;4.25;;;1.23;;
50056;SDS011;36875;49.468;11.200;2022-09-09T13:50:18;7.38;;;1.02;;
50056;SDS011;36875;49.468;11.200;2022-09-09T13:52:45;2.22;;;0.85;;
50056;SDS011;36875;49.468;11.200;2022-09-09T13:55:12;5.80;;;0.98;;
50056;SDS011;36875;49.468;11.200;2022-09-09T13:57:38;3.10;;;0.70;;
50056;SDS011;36875;49.468;11.200;2022-09-09T14:00:04;5.43;;;1.10;;
50056;SDS011;36875;49.468;11.200;2022-09-09T14:02:35;1.98;;;0.70;;
50056;SDS011;36875;49.468;11.200;2022-09-09T14:05:00;3.83;;;0.80;;
50056;SDS011;36875;49.468;11.200;2022-09-09T14:07:26;5.22;;;1.10;;
50056;SDS011;36875;49.468;11.200;2022-09-09T14:09:52;3.40;;;0.98;;
50056;SDS011;36875;49.468;11.200;2022-09-09T14:12:17;3.53;;;0.60;;
50056;SDS011;36875;49.468;11.200;2022-09-09T14:14:43;2.88;;;0.60;;
50056;SDS011;36875;49.468;11.200;2022-09-09T14:17:09;1.80;;;0.70;;
50056;SDS011;36875;49.468;11.200;2022-09-09T14:19:36;3.30;;;0.85;;
50056;SDS011;36875;49.468;11.200;2022-09-09T14:22:04;3.30;;;0.67;;
50056;SDS011;36875;49.468;11.200;2022-09-09T14:24:30;0.95;;;0.60;;
50056;SDS011;36875;49.468;11.200;2022-09-09T14:26:56;3.05;;;0.82;;
50056;SDS011;36875;49.468;11.200;2022-09-09T14:29:21;1.63;;;0.60;;
50056;SDS011;36875;49.468;11.200;2022-09-09T14:31:47;1.77;;;0.70;;
50056;SDS011;36875;49.468;11.200;2022-09-09T14:34:12;3.05;;;0.73;;
50056;SDS011;36875;49.468;11.200;2022-09-09T14:36:40;1.90;;;0.80;;
50056;SDS011;36875;49.468;11.200;2022-09-09T14:39:06;3.75;;;0.82;;
50056;SDS011;36875;49.468;11.200;2022-09-09T14:41:32;2.78;;;1.13;;
50056;SDS011;36875;49.468;11.200;2022-09-09T14:43:58;2.15;;;0.98;;
50056;SDS011;36875;49.468;11.200;2022-09-09T14:46:24;2.67;;;0.70;;
50056;SDS011;36875;49.468;11.200;2022-09-09T14:48:51;3.72;;;0.60;;
50056;SDS011;36875;49.468;11.200;2022-09-09T14:51:18;5.47;;;1.00;;
50056;SDS011;36875;49.468;11.200;2022-09-09T14:53:46;8.30;;;0.95;;
50056;SDS011;36875;49.468;11.200;2022-09-09T14:56:13;6.20;;;1.33;;
50056;SDS011;36875;49.468;11.200;2022-09-09T14:58:40;5.25;;;1.15;;